createdAt,value
2019-03-29T00:01:05.308Z,75.07
2019-03-29T00:03:33.512Z,67.77
2019-03-29T00:06:02.577Z,70.90
2019-03-29T00:08:30.849Z,69.00
2019-03-29T00:10:59.149Z,68.57
2019-03-29T00:13:27.435Z,69.80
2019-03-29T00:15:55.734Z,69.00
2019-03-29T00:18:23.986Z,69.23
2019-03-29T00:20:52.238Z,69.77
2019-03-29T00:23:20.517Z,68.10
2019-03-29T00:25:48.764Z,68.57
2019-03-29T00:28:17.075Z,69.60
2019-03-29T00:30:45.331Z,70.60
2019-03-29T00:33:13.613Z,71.70
2019-03-29T00:35:41.934Z,70.73
2019-03-29T00:38:10.183Z,68.50
2019-03-29T00:40:38.500Z,69.87
2019-03-29T00:43:06.813Z,69.10
2019-03-29T00:45:35.024Z,69.10
2019-03-29T00:48:03.269Z,71.87
2019-03-29T00:50:31.447Z,68.90
2019-03-29T00:52:59.776Z,67.87
2019-03-29T00:55:28.145Z,71.63
2019-03-29T00:57:56.926Z,68.60
2019-03-29T01:00:25.389Z,67.87
2019-03-29T01:02:53.666Z,70.17
2019-03-29T01:05:21.926Z,69.63
2019-03-29T01:07:50.228Z,69.37
2019-03-29T01:10:18.497Z,69.63
2019-03-29T01:12:46.764Z,69.20
2019-03-29T01:15:15.039Z,68.40
2019-03-29T01:17:43.344Z,69.60
2019-03-29T01:20:11.931Z,68.43
2019-03-29T01:22:40.281Z,70.40
2019-03-29T01:25:08.653Z,70.90
2019-03-29T01:27:36.943Z,68.33
2019-03-29T01:30:05.260Z,68.07
2019-03-29T01:32:33.571Z,69.87
2019-03-29T01:35:01.869Z,69.10
2019-03-29T01:37:30.144Z,68.50
2019-03-29T01:39:58.450Z,69.10
2019-03-29T01:42:26.734Z,68.60
2019-03-29T01:44:55.098Z,69.93
2019-03-29T01:47:23.681Z,70.47
2019-03-29T01:49:52.023Z,69.17
2019-03-29T01:52:20.287Z,69.67
2019-03-29T01:54:48.572Z,70.97
2019-03-29T01:57:16.737Z,69.20
2019-03-29T01:59:45.061Z,71.40
2019-03-29T02:02:13.404Z,70.60
2019-03-29T02:04:41.719Z,72.00
2019-03-29T02:07:10.074Z,71.47
2019-03-29T02:09:38.358Z,70.30
2019-03-29T02:12:07.136Z,72.17
2019-03-29T02:14:35.608Z,70.70
2019-03-29T02:17:03.790Z,70.90
2019-03-29T02:19:32.205Z,70.47
2019-03-29T02:22:00.572Z,69.60
2019-03-29T02:24:28.911Z,74.27
2019-03-29T02:26:57.210Z,70.80
2019-03-29T02:29:25.464Z,70.30
2019-03-29T02:31:54.086Z,71.10
2019-03-29T02:34:22.317Z,69.97
2019-03-29T02:36:50.611Z,69.57
2019-03-29T02:39:18.867Z,71.80
2019-03-29T02:41:47.250Z,72.37
2019-03-29T02:44:15.983Z,70.57
2019-03-29T02:46:44.322Z,71.97
2019-03-29T02:49:13.154Z,72.77
2019-03-29T02:51:41.612Z,76.20
2019-03-29T02:54:09.930Z,71.37
2019-03-29T02:56:38.252Z,71.47
2019-03-29T02:59:06.559Z,71.60
2019-03-29T03:01:34.818Z,70.47
2019-03-29T03:04:03.075Z,71.33
2019-03-29T03:06:31.388Z,71.83
2019-03-29T03:09:13.067Z,72.00
2019-03-29T03:11:29.555Z,77.23
2019-03-29T03:13:57.828Z,72.57
2019-03-29T03:16:26.125Z,70.90
2019-03-29T03:18:54.381Z,73.60
2019-03-29T03:21:22.658Z,71.57
2019-03-29T03:23:50.918Z,71.17
2019-03-29T03:26:19.184Z,72.20
2019-03-29T03:28:47.489Z,71.73
2019-03-29T03:31:15.743Z,70.40
2019-03-29T03:33:44.045Z,77.17
2019-03-29T03:36:12.342Z,73.00
2019-03-29T03:38:40.692Z,72.80
2019-03-29T03:41:08.988Z,72.30
2019-03-29T03:43:37.252Z,71.30
2019-03-29T03:46:05.534Z,72.30
2019-03-29T03:48:33.785Z,72.67
2019-03-29T03:51:02.065Z,71.90
2019-03-29T03:53:30.614Z,72.40
2019-03-29T03:55:59.653Z,74.10
2019-03-29T03:58:27.933Z,71.10
2019-03-29T04:00:57.173Z,72.43
2019-03-29T04:03:25.710Z,71.57
2019-03-29T04:05:53.970Z,72.67
2019-03-29T04:08:22.364Z,72.80
2019-03-29T04:10:50.630Z,73.37
2019-03-29T04:13:19.196Z,72.50
2019-03-29T04:15:47.496Z,74.17
2019-03-29T04:18:16.612Z,71.60
2019-03-29T04:20:45.185Z,81.23
2019-03-29T04:23:13.460Z,72.97
2019-03-29T04:25:41.749Z,72.30
2019-03-29T04:28:09.997Z,71.47
2019-03-29T04:30:38.308Z,74.07
2019-03-29T04:33:10.811Z,70.00
2019-03-29T04:35:36.570Z,74.00
2019-03-29T04:38:04.903Z,71.40
2019-03-29T04:40:33.236Z,74.47
2019-03-29T04:43:01.496Z,73.20
2019-03-29T04:45:29.786Z,71.83
2019-03-29T04:47:58.058Z,71.37
2019-03-29T04:50:26.342Z,73.37
2019-03-29T04:52:54.594Z,72.80
2019-03-29T04:55:22.926Z,72.93
2019-03-29T04:57:51.270Z,73.43
2019-03-29T05:00:19.965Z,76.40
2019-03-29T05:02:48.211Z,71.07
2019-03-29T05:05:16.491Z,73.50
2019-03-29T05:07:44.785Z,71.30
2019-03-29T05:10:21.176Z,74.23
2019-03-29T05:12:42.979Z,70.17
2019-03-29T05:15:11.240Z,72.00
2019-03-29T05:17:39.541Z,70.87
2019-03-29T05:20:07.887Z,70.33
2019-03-29T05:22:36.169Z,71.83
2019-03-29T05:25:04.557Z,70.07
2019-03-29T05:27:33.176Z,70.97
2019-03-29T05:30:01.443Z,113.43
2019-03-29T05:32:29.783Z,73.47
2019-03-29T05:34:58.087Z,75.97
2019-03-29T05:37:26.356Z,70.13
2019-03-29T05:39:54.630Z,71.00
2019-03-29T05:42:22.955Z,72.27
2019-03-29T05:44:51.281Z,70.43
2019-03-29T05:47:19.568Z,73.13
2019-03-29T05:49:47.830Z,72.60
2019-03-29T05:52:16.132Z,74.10
2019-03-29T05:54:44.468Z,71.77
2019-03-29T05:57:12.649Z,72.27
2019-03-29T05:59:40.833Z,73.67
2019-03-29T06:02:09.131Z,73.70
2019-03-29T06:04:37.399Z,73.63
2019-03-29T06:07:05.783Z,72.60
2019-03-29T06:09:35.034Z,75.53
2019-03-29T06:12:03.430Z,72.70
2019-03-29T06:14:32.046Z,72.70
2019-03-29T06:17:00.313Z,73.40
2019-03-29T06:19:28.555Z,71.97
2019-03-29T06:21:56.744Z,71.03
2019-03-29T06:24:24.931Z,71.10
2019-03-29T06:26:53.207Z,72.03
2019-03-29T06:29:21.471Z,70.50
2019-03-29T06:31:49.789Z,71.23
2019-03-29T06:34:18.018Z,75.20
2019-03-29T06:36:46.741Z,75.50
2019-03-29T06:39:15.083Z,73.77
2019-03-29T06:41:43.401Z,72.57
2019-03-29T06:44:11.757Z,73.30
2019-03-29T06:46:40.016Z,72.10
2019-03-29T06:49:08.193Z,75.50
2019-03-29T06:51:36.467Z,71.00
2019-03-29T06:54:04.775Z,70.83
2019-03-29T06:56:33.064Z,73.47
2019-03-29T06:59:01.428Z,71.40
2019-03-29T07:01:29.698Z,72.60
2019-03-29T07:03:58.064Z,76.50
2019-03-29T07:06:26.339Z,73.60
2019-03-29T07:08:54.605Z,71.90
2019-03-29T07:11:23.337Z,71.97
2019-03-29T07:13:57.916Z,73.97
2019-03-29T07:16:21.589Z,73.47
2019-03-29T07:18:49.877Z,73.90
2019-03-29T07:21:21.804Z,74.00
2019-03-29T07:23:48.075Z,73.97
2019-03-29T07:26:16.344Z,75.37
2019-03-29T07:28:44.632Z,73.87
2019-03-29T07:31:12.977Z,72.53
2019-03-29T07:33:41.268Z,76.57
2019-03-29T07:36:09.550Z,71.80
2019-03-29T07:38:37.826Z,76.20
2019-03-29T07:41:06.068Z,78.43
2019-03-29T07:43:34.927Z,73.50
2019-03-29T07:46:03.252Z,79.53
2019-03-29T07:48:31.628Z,73.97
2019-03-29T07:50:59.823Z,74.03
2019-03-29T07:53:28.078Z,75.10
2019-03-29T07:55:56.403Z,75.90
2019-03-29T07:58:24.738Z,71.13
2019-03-29T08:00:53.026Z,73.00
2019-03-29T08:03:21.643Z,72.87
2019-03-29T08:05:51.648Z,72.00
2019-03-29T08:08:24.619Z,75.77
2019-03-29T08:10:53.199Z,75.00
2019-03-29T08:13:19.846Z,75.17
2019-03-29T08:15:48.085Z,73.03
2019-03-29T08:18:16.607Z,71.17
2019-03-29T08:20:45.003Z,82.40
2019-03-29T08:23:13.251Z,72.90
2019-03-29T08:25:41.560Z,71.57
2019-03-29T08:28:09.898Z,74.70
2019-03-29T08:30:38.283Z,71.23
2019-03-29T08:33:06.561Z,73.97
2019-03-29T08:35:34.847Z,72.90
2019-03-29T08:38:05.983Z,73.67
2019-03-29T08:40:33.033Z,73.20
2019-03-29T08:43:01.307Z,73.50
2019-03-29T08:45:29.676Z,74.47
2019-03-29T08:47:57.970Z,73.00
2019-03-29T08:50:26.228Z,72.60
2019-03-29T08:52:54.496Z,72.57
2019-03-29T08:55:22.800Z,73.33
2019-03-29T08:57:51.127Z,73.10
2019-03-29T09:00:30.167Z,70.60
2019-03-29T09:02:58.477Z,72.20
2019-03-29T09:05:27.768Z,72.10
2019-03-29T09:07:56.051Z,71.83
2019-03-29T09:10:25.012Z,74.83
2019-03-29T09:12:53.323Z,72.57
2019-03-29T09:15:21.864Z,71.50
2019-03-29T09:17:52.216Z,73.60
2019-03-29T09:20:20.497Z,75.03
2019-03-29T09:22:48.774Z,72.40
2019-03-29T09:25:17.086Z,73.30
2019-03-29T09:27:47.815Z,80.13
2019-03-29T09:30:17.422Z,74.10
2019-03-29T09:32:46.846Z,71.80
2019-03-29T09:35:15.064Z,72.90
2019-03-29T09:37:43.346Z,73.87
2019-03-29T09:40:14.038Z,73.37
2019-03-29T09:42:42.494Z,71.80
2019-03-29T09:45:10.891Z,73.10
2019-03-29T09:47:40.728Z,72.70
2019-03-29T09:50:10.502Z,73.17
2019-03-29T09:52:39.157Z,73.87
2019-03-29T09:55:07.844Z,74.07
2019-03-29T09:57:46.805Z,74.50
2019-03-29T10:00:20.930Z,73.30
2019-03-29T10:02:47.029Z,74.80
2019-03-29T10:05:15.249Z,73.33
2019-03-29T10:07:44.581Z,74.90
2019-03-29T10:10:12.942Z,72.77
2019-03-29T10:12:43.800Z,75.23
2019-03-29T10:15:11.742Z,73.10
2019-03-29T10:17:40.039Z,73.67
2019-03-29T10:20:08.720Z,76.50
2019-03-29T10:22:36.993Z,73.37
2019-03-29T10:25:18.431Z,75.70
2019-03-29T10:27:35.311Z,74.27
2019-03-29T10:30:03.921Z,74.27
2019-03-29T10:32:32.255Z,73.80
2019-03-29T10:35:00.570Z,76.17
2019-03-29T10:37:28.923Z,75.77
2019-03-29T10:39:57.191Z,75.20
2019-03-29T10:42:25.832Z,74.87
2019-03-29T10:44:54.247Z,77.20
2019-03-29T10:47:22.738Z,80.67
2019-03-29T10:49:51.337Z,75.77
2019-03-29T10:52:19.921Z,78.00
2019-03-29T10:54:49.912Z,79.63
2019-03-29T10:57:18.455Z,77.87
2019-03-29T10:59:46.780Z,74.73
2019-03-29T11:02:15.065Z,75.27
2019-03-29T11:04:43.428Z,78.90
2019-03-29T11:07:11.709Z,76.63
2019-03-29T11:09:39.997Z,74.97
2019-03-29T11:12:08.355Z,75.40
2019-03-29T11:14:37.074Z,90.47
2019-03-29T11:17:05.421Z,76.13
2019-03-29T11:19:35.725Z,76.80
2019-03-29T11:22:04.453Z,76.10
2019-03-29T11:24:32.818Z,77.77
2019-03-29T11:27:02.129Z,75.77
2019-03-29T11:29:30.475Z,75.70
2019-03-29T11:31:59.810Z,75.30
2019-03-29T11:34:29.270Z,75.53
2019-03-29T11:36:57.466Z,76.07
2019-03-29T11:39:27.497Z,74.77
2019-03-29T11:41:55.696Z,76.87
2019-03-29T11:44:24.049Z,79.00
2019-03-29T11:46:52.282Z,75.50
2019-03-29T11:49:20.618Z,75.17
2019-03-29T11:51:48.952Z,76.10
2019-03-29T11:54:17.138Z,75.07
2019-03-29T11:56:47.700Z,77.37
2019-03-29T11:59:15.793Z,77.00
2019-03-29T12:01:44.293Z,76.20
2019-03-29T12:04:12.668Z,76.07
2019-03-29T12:06:41.265Z,75.37
2019-03-29T12:09:09.549Z,75.17
2019-03-29T12:11:38.103Z,77.37
2019-03-29T12:14:06.297Z,76.70
2019-03-29T12:16:34.738Z,77.50
2019-03-29T12:19:03.245Z,74.73
2019-03-29T12:21:38.853Z,83.30
2019-03-29T12:24:09.033Z,75.10
2019-03-29T12:26:37.349Z,75.67
2019-03-29T12:29:05.725Z,75.23
2019-03-29T12:31:34.063Z,76.10
2019-03-29T12:34:08.322Z,74.80
2019-03-29T12:36:37.724Z,78.63
2019-03-29T12:39:06.914Z,76.07
2019-03-29T12:41:35.174Z,75.80
2019-03-29T12:44:03.572Z,74.47
2019-03-29T12:46:32.403Z,76.10
2019-03-29T12:49:06.752Z,75.97
2019-03-29T12:51:35.058Z,74.20
2019-03-29T12:54:03.497Z,76.70
2019-03-29T12:56:32.599Z,79.00
2019-03-29T12:59:02.439Z,75.87
2019-03-29T13:01:39.819Z,76.30
2019-03-29T13:04:03.687Z,75.30
2019-03-29T13:06:33.036Z,76.10
2019-03-29T13:09:01.393Z,77.17
2019-03-29T13:11:29.778Z,75.40
2019-03-29T13:14:09.570Z,75.97
2019-03-29T13:16:28.227Z,74.97
2019-03-29T13:18:56.513Z,77.30
2019-03-29T13:21:24.801Z,75.70
2019-03-29T13:23:53.106Z,78.90
2019-03-29T13:26:21.485Z,74.90
2019-03-29T13:28:49.915Z,86.03
2019-03-29T13:31:18.743Z,75.80
2019-03-29T13:33:48.075Z,76.57
2019-03-29T13:36:16.476Z,75.87
2019-03-29T13:38:44.790Z,75.67
2019-03-29T13:41:13.072Z,75.50
2019-03-29T13:43:41.334Z,77.27
2019-03-29T13:46:09.610Z,77.30
2019-03-29T13:48:38.004Z,80.90
2019-03-29T13:51:06.399Z,77.80
2019-03-29T13:53:34.717Z,76.23
2019-03-29T13:56:03.002Z,77.27
2019-03-29T13:58:31.331Z,76.40
2019-03-29T14:00:59.954Z,78.70
2019-03-29T14:03:28.374Z,74.50
2019-03-29T14:05:56.644Z,74.63
2019-03-29T14:08:24.911Z,77.47
2019-03-29T14:10:53.175Z,76.97
2019-03-29T14:13:21.488Z,75.70
2019-03-29T14:15:49.733Z,77.73
2019-03-29T14:18:18.340Z,76.27
2019-03-29T14:20:46.638Z,79.30
2019-03-29T14:23:14.858Z,75.67
2019-03-29T14:25:43.154Z,77.30
2019-03-29T14:28:12.492Z,81.53
2019-03-29T14:30:40.856Z,77.30
2019-03-29T14:33:09.225Z,75.40
2019-03-29T14:35:37.488Z,74.10
2019-03-29T14:38:05.760Z,79.47
2019-03-29T14:40:34.037Z,75.80
2019-03-29T14:43:02.321Z,75.33
2019-03-29T14:45:30.629Z,74.27
2019-03-29T14:47:58.912Z,75.97
2019-03-29T14:50:27.219Z,76.60
2019-03-29T14:52:55.428Z,80.43
2019-03-29T14:55:23.769Z,77.80
2019-03-29T14:57:52.168Z,76.20
2019-03-29T15:00:25.113Z,75.07
2019-03-29T15:02:56.205Z,76.70
2019-03-29T15:05:26.495Z,75.00
2019-03-29T15:07:55.001Z,76.40
2019-03-29T15:10:25.949Z,76.43
2019-03-29T15:12:54.439Z,75.70
2019-03-29T15:15:22.714Z,77.63
2019-03-29T15:17:50.968Z,74.87
2019-03-29T15:20:19.158Z,75.37
2019-03-29T15:22:47.440Z,77.80
2019-03-29T15:25:15.722Z,75.73
2019-03-29T15:27:43.990Z,79.37
2019-03-29T15:30:13.474Z,77.07
2019-03-29T15:32:41.764Z,74.77
2019-03-29T15:35:10.024Z,75.00
2019-03-29T15:37:38.250Z,77.37
2019-03-29T15:40:06.582Z,75.33
2019-03-29T15:42:35.198Z,76.70
2019-03-29T15:45:03.413Z,77.13
2019-03-29T15:47:31.713Z,78.50
2019-03-29T15:50:00.373Z,74.63
2019-03-29T15:52:28.794Z,75.80
2019-03-29T15:54:57.087Z,75.87
2019-03-29T15:57:25.340Z,74.17
2019-03-29T15:59:53.560Z,75.00
2019-03-29T16:02:21.930Z,74.30
2019-03-29T16:04:50.312Z,73.40
2019-03-29T16:07:18.544Z,75.10
2019-03-29T16:09:46.813Z,77.13
2019-03-29T16:12:15.102Z,75.03
2019-03-29T16:14:43.370Z,75.70
2019-03-29T16:17:11.665Z,73.37
2019-03-29T16:19:39.939Z,76.60
2019-03-29T16:22:08.205Z,75.60
2019-03-29T16:24:36.612Z,74.20
2019-03-29T16:27:04.958Z,75.40
2019-03-29T16:29:33.156Z,73.70
2019-03-29T16:32:01.717Z,74.00
2019-03-29T16:34:30.438Z,73.17
2019-03-29T16:36:58.786Z,75.47
2019-03-29T16:39:28.123Z,74.67
2019-03-29T16:41:56.481Z,72.97
2019-03-29T16:44:24.781Z,81.90
2019-03-29T16:46:54.047Z,76.30
2019-03-29T16:49:22.486Z,76.80
2019-03-29T16:51:53.311Z,77.23
2019-03-29T16:54:21.642Z,80.73
2019-03-29T16:56:49.934Z,76.80
2019-03-29T16:59:19.220Z,77.60
2019-03-29T17:01:51.222Z,77.30
2019-03-29T17:04:21.771Z,79.30
2019-03-29T17:06:53.253Z,77.53
2019-03-29T17:09:22.553Z,79.63
2019-03-29T17:11:50.866Z,75.17
2019-03-29T17:14:19.250Z,76.50
2019-03-29T17:16:47.485Z,77.07
2019-03-29T17:19:15.786Z,76.40
2019-03-29T17:21:44.053Z,81.20
2019-03-29T17:24:13.345Z,77.90
2019-03-29T17:26:41.661Z,77.17
2019-03-29T17:29:12.286Z,79.47
2019-03-29T17:31:40.534Z,79.73
2019-03-29T17:34:08.810Z,76.70
2019-03-29T17:36:37.161Z,79.87
2019-03-29T17:39:07.036Z,77.93
2019-03-29T17:41:36.338Z,76.20
2019-03-29T17:44:04.656Z,74.87
2019-03-29T17:46:33.026Z,77.60
2019-03-29T17:49:01.458Z,78.53
2019-03-29T17:51:29.834Z,81.50
2019-03-29T17:53:58.210Z,77.87
2019-03-29T17:56:26.455Z,75.27
2019-03-29T17:58:54.671Z,76.80
2019-03-29T18:01:22.952Z,77.50
2019-03-29T18:03:51.259Z,75.07
2019-03-29T18:06:19.581Z,79.27
2019-03-29T18:08:48.140Z,77.90
2019-03-29T18:11:17.747Z,77.10
2019-03-29T18:13:46.030Z,76.87
2019-03-29T18:16:14.320Z,81.23
2019-03-29T18:18:42.608Z,77.10
2019-03-29T18:21:12.897Z,77.67
2019-03-29T18:23:41.184Z,76.60
2019-03-29T18:26:09.487Z,77.80
2019-03-29T18:28:38.164Z,78.63
2019-03-29T18:31:06.538Z,77.57
2019-03-29T18:33:36.020Z,78.00
2019-03-29T18:36:05.053Z,74.70
2019-03-29T18:38:34.788Z,76.00
2019-03-29T18:41:03.190Z,79.70
2019-03-29T18:43:31.525Z,77.60
2019-03-29T18:45:59.779Z,80.93
2019-03-29T18:48:28.052Z,78.97
2019-03-29T18:50:56.309Z,80.00
2019-03-29T18:53:24.621Z,81.33
2019-03-29T18:55:53.019Z,76.37
2019-03-29T18:58:21.294Z,80.70
2019-03-29T19:00:49.549Z,77.57
2019-03-29T19:03:18.730Z,77.07
2019-03-29T19:05:47.158Z,79.53
2019-03-29T19:08:15.553Z,81.97
2019-03-29T19:10:44.193Z,77.77
2019-03-29T19:13:12.540Z,82.40
2019-03-29T19:15:40.769Z,78.17
2019-03-29T19:18:09.112Z,87.80
2019-03-29T19:20:37.467Z,86.10
2019-03-29T19:23:05.933Z,86.77
2019-03-29T19:25:34.674Z,79.47
2019-03-29T19:28:03.876Z,80.57
2019-03-29T19:30:32.226Z,78.20
2019-03-29T19:33:00.509Z,79.37
2019-03-29T19:35:28.796Z,81.00
2019-03-29T19:37:57.070Z,76.67
2019-03-29T19:40:25.399Z,76.97
2019-03-29T19:42:55.099Z,79.53
2019-03-29T19:45:23.953Z,79.90
2019-03-29T19:47:52.293Z,80.53
2019-03-29T19:50:20.627Z,79.23
2019-03-29T19:52:49.014Z,79.30
2019-03-29T19:55:17.251Z,82.27
2019-03-29T19:57:46.603Z,82.97
2019-03-29T20:00:15.565Z,82.10
2019-03-29T20:02:44.474Z,85.03
2019-03-29T20:05:31.857Z,80.20
2019-03-29T20:08:00.158Z,79.27
2019-03-29T20:10:28.610Z,80.47
2019-03-29T20:12:57.771Z,79.20
2019-03-29T20:15:26.074Z,81.37
2019-03-29T20:17:54.337Z,85.50
2019-03-29T20:20:23.149Z,82.33
2019-03-29T20:22:51.842Z,80.83
2019-03-29T20:25:20.122Z,86.00
2019-03-29T20:27:48.399Z,81.17
2019-03-29T20:30:16.661Z,81.57
2019-03-29T20:32:44.965Z,81.30
2019-03-29T20:35:13.290Z,83.97
2019-03-29T20:37:41.724Z,85.40
2019-03-29T20:40:10.120Z,83.20
2019-03-29T20:42:38.474Z,84.00
2019-03-29T20:45:06.840Z,80.30
2019-03-29T20:47:41.957Z,81.20
2019-03-29T20:50:05.272Z,85.67
2019-03-29T20:52:33.516Z,83.13
2019-03-29T20:55:01.782Z,83.93
2019-03-29T20:57:30.045Z,81.93
2019-03-29T20:59:58.349Z,85.50
2019-03-29T21:02:26.643Z,82.57
2019-03-29T21:04:55.013Z,81.10
2019-03-29T21:07:23.413Z,81.73
2019-03-29T21:09:51.700Z,78.23
2019-03-29T21:12:20.042Z,86.10
2019-03-29T21:14:48.397Z,84.77
2019-03-29T21:17:16.654Z,83.20
2019-03-29T21:19:45.018Z,83.10
2019-03-29T21:22:13.343Z,81.87
2019-03-29T21:24:41.637Z,81.60
2019-03-29T21:27:09.986Z,82.67
2019-03-29T21:29:38.280Z,80.43
2019-03-29T21:32:06.632Z,80.67
2019-03-29T21:34:34.934Z,82.67
2019-03-29T21:37:03.193Z,81.33
2019-03-29T21:39:31.504Z,82.30
2019-03-29T21:41:59.756Z,81.10
2019-03-29T21:44:28.025Z,83.17
2019-03-29T21:46:56.285Z,80.23
2019-03-29T21:49:24.497Z,78.53
2019-03-29T21:51:52.861Z,84.13
2019-03-29T21:54:21.106Z,82.20
2019-03-29T21:56:49.558Z,80.37
2019-03-29T21:59:17.814Z,82.40
2019-03-29T22:01:46.085Z,80.63
2019-03-29T22:04:14.457Z,79.67
2019-03-29T22:06:42.804Z,82.50
2019-03-29T22:09:11.090Z,82.00
2019-03-29T22:11:39.402Z,83.67
2019-03-29T22:14:07.741Z,82.27
2019-03-29T22:16:36.040Z,81.63
2019-03-29T22:19:04.301Z,82.97
2019-03-29T22:21:32.586Z,87.97
2019-03-29T22:24:00.847Z,84.87
2019-03-29T22:26:29.114Z,80.00
2019-03-29T22:28:57.585Z,83.70
2019-03-29T22:31:25.765Z,83.00
2019-03-29T22:33:54.102Z,99.20
2019-03-29T22:36:22.431Z,84.83
2019-03-29T22:38:50.700Z,85.67
2019-03-29T22:41:18.922Z,89.73
2019-03-29T22:43:47.264Z,84.90
2019-03-29T22:46:15.546Z,85.83
2019-03-29T22:48:52.251Z,90.00
2019-03-29T22:51:13.776Z,87.80
2019-03-29T22:53:42.094Z,93.13
2019-03-29T22:56:10.406Z,88.83
2019-03-29T22:58:38.773Z,85.10
2019-03-29T23:01:07.473Z,85.03
2019-03-29T23:03:35.788Z,101.60
2019-03-29T23:06:05.026Z,95.47
2019-03-29T23:08:33.285Z,86.27
2019-03-29T23:11:01.718Z,90.47
2019-03-29T23:13:30.387Z,84.23
2019-03-29T23:15:58.634Z,83.20
2019-03-29T23:18:26.941Z,83.57
2019-03-29T23:20:55.213Z,86.13
2019-03-29T23:23:23.452Z,84.60
2019-03-29T23:25:51.658Z,87.23
2019-03-29T23:28:19.949Z,83.20
2019-03-29T23:30:48.213Z,86.37
2019-03-29T23:33:16.460Z,90.90
2019-03-29T23:35:44.666Z,87.00
2019-03-29T23:38:12.926Z,83.17
2019-03-29T23:40:41.263Z,83.80
2019-03-29T23:43:09.512Z,91.77
2019-03-29T23:45:37.869Z,97.07
2019-03-29T23:48:06.140Z,88.40
2019-03-29T23:50:34.438Z,89.70
2019-03-29T23:53:02.818Z,83.13
2019-03-29T23:55:31.168Z,85.57
2019-03-29T23:57:59.474Z,82.40
